sensor_id;sensor_type;location;lat;lon;timestamp;P1;durP1;ratioP1;P2;durP2;ratioP2
12760;SDS011;6444;49.742;6.114;2023-04-03T00:00:00;4.37;;;2.47;;
12760;SDS011;6444;49.742;6.114;2023-04-03T00:02:26;2.30;;;2.10;;
12760;SDS011;6444;49.742;6.114;2023-04-03T00:04:53;5.63;;;2.23;;
12760;SDS011;6444;49.742;6.114;2023-04-03T00:07:20;2.00;;;1.90;;
12760;SDS011;6444;49.742;6.114;2023-04-03T00:09:47;4.60;;;2.20;;
12760;SDS011;6444;49.742;6.114;2023-04-03T00:12:14;2.60;;;2.40;;
12760;SDS011;6444;49.742;6.114;2023-04-03T00:14:40;2.47;;;2.27;;
12760;SDS011;6444;49.742;6.114;2023-04-03T00:17:07;3.23;;;2.27;;
12760;SDS011;6444;49.742;6.114;2023-04-03T00:19:34;4.70;;;2.00;;
12760;SDS011;6444;49.742;6.114;2023-04-03T00:22:00;2.40;;;2.20;;
12760;SDS011;6444;49.742;6.114;2023-04-03T00:24:27;2.53;;;1.93;;
12760;SDS011;6444;49.742;6.114;2023-04-03T00:26:54;3.17;;;2.20;;
12760;SDS011;6444;49.742;6.114;2023-04-03T00:29:20;2.57;;;2.07;;
12760;SDS011;6444;49.742;6.114;2023-04-03T00:31:47;2.60;;;1.80;;
12760;SDS011;6444;49.742;6.114;2023-04-03T00:34:14;2.50;;;2.30;;
12760;SDS011;6444;49.742;6.114;2023-04-03T00:36:40;3.10;;;2.30;;
12760;SDS011;6444;49.742;6.114;2023-04-03T00:39:07;3.63;;;1.93;;
12760;SDS011;6444;49.742;6.114;2023-04-03T00:41:33;3.07;;;2.00;;
12760;SDS011;6444;49.742;6.114;2023-04-03T00:44:00;3.30;;;2.20;;
12760;SDS011;6444;49.742;6.114;2023-04-03T00:46:27;3.77;;;2.27;;
12760;SDS011;6444;49.742;6.114;2023-04-03T00:48:53;2.20;;;1.90;;
12760;SDS011;6444;49.742;6.114;2023-04-03T00:51:21;2.87;;;2.40;;
12760;SDS011;6444;49.742;6.114;2023-04-03T00:53:57;2.67;;;2.10;;
12760;SDS011;6444;49.742;6.114;2023-04-03T00:56:25;4.03;;;2.87;;
12760;SDS011;6444;49.742;6.114;2023-04-03T00:58:53;3.77;;;2.20;;
12760;SDS011;6444;49.742;6.114;2023-04-03T01:01:22;2.10;;;1.87;;
12760;SDS011;6444;49.742;6.114;2023-04-03T01:03:48;4.10;;;2.30;;
12760;SDS011;6444;49.742;6.114;2023-04-03T01:06:16;2.57;;;2.27;;
12760;SDS011;6444;49.742;6.114;2023-04-03T01:08:44;3.15;;;2.37;;
12760;SDS011;6444;49.742;6.114;2023-04-03T01:11:11;2.13;;;1.93;;
12760;SDS011;6444;49.742;6.114;2023-04-03T01:13:38;2.70;;;2.17;;
12760;SDS011;6444;49.742;6.114;2023-04-03T01:16:04;3.23;;;2.20;;
12760;SDS011;6444;49.742;6.114;2023-04-03T01:18:31;2.07;;;1.90;;
12760;SDS011;6444;49.742;6.114;2023-04-03T01:23:46;2.60;;;2.07;;
12760;SDS011;6444;49.742;6.114;2023-04-03T01:26:15;2.20;;;2.00;;
12760;SDS011;6444;49.742;6.114;2023-04-03T01:28:42;2.20;;;2.00;;
12760;SDS011;6444;49.742;6.114;2023-04-03T01:31:18;2.37;;;2.07;;
12760;SDS011;6444;49.742;6.114;2023-04-03T01:33:42;2.43;;;2.13;;
12760;SDS011;6444;49.742;6.114;2023-04-03T01:36:09;3.37;;;2.13;;
12760;SDS011;6444;49.742;6.114;2023-04-03T01:38:38;2.57;;;2.30;;
12760;SDS011;6444;49.742;6.114;2023-04-03T01:41:05;3.37;;;2.47;;
12760;SDS011;6444;49.742;6.114;2023-04-03T01:43:32;4.30;;;2.20;;
12760;SDS011;6444;49.742;6.114;2023-04-03T01:45:58;3.20;;;2.00;;
12760;SDS011;6444;49.742;6.114;2023-04-03T01:48:25;4.60;;;2.70;;
12760;SDS011;6444;49.742;6.114;2023-04-03T01:50:52;3.57;;;2.30;;
12760;SDS011;6444;49.742;6.114;2023-04-03T01:53:18;3.07;;;2.60;;
12760;SDS011;6444;49.742;6.114;2023-04-03T01:55:45;4.40;;;2.53;;
12760;SDS011;6444;49.742;6.114;2023-04-03T01:58:11;2.40;;;2.20;;
12760;SDS011;6444;49.742;6.114;2023-04-03T02:00:39;2.87;;;2.40;;
12760;SDS011;6444;49.742;6.114;2023-04-03T02:03:05;4.37;;;2.60;;
12760;SDS011;6444;49.742;6.114;2023-04-03T02:05:32;4.77;;;2.83;;
12760;SDS011;6444;49.742;6.114;2023-04-03T02:07:59;3.63;;;2.50;;
12760;SDS011;6444;49.742;6.114;2023-04-03T02:10:25;3.83;;;2.70;;
12760;SDS011;6444;49.742;6.114;2023-04-03T02:12:52;2.87;;;2.57;;
12760;SDS011;6444;49.742;6.114;2023-04-03T02:15:19;3.78;;;3.30;;
12760;SDS011;6444;49.742;6.114;2023-04-03T02:17:45;3.33;;;3.00;;
12760;SDS011;6444;49.742;6.114;2023-04-03T02:20:12;3.50;;;3.13;;
12760;SDS011;6444;49.742;6.114;2023-04-03T02:22:39;4.13;;;2.53;;
12760;SDS011;6444;49.742;6.114;2023-04-03T02:25:05;2.90;;;2.60;;
12760;SDS011;6444;49.742;6.114;2023-04-03T02:27:32;3.62;;;3.28;;
12760;SDS011;6444;49.742;6.114;2023-04-03T02:29:59;3.40;;;2.93;;
12760;SDS011;6444;49.742;6.114;2023-04-03T02:32:25;3.93;;;2.40;;
12760;SDS011;6444;49.742;6.114;2023-04-03T02:34:52;2.87;;;2.57;;
12760;SDS011;6444;49.742;6.114;2023-04-03T02:37:19;2.70;;;2.50;;
12760;SDS011;6444;49.742;6.114;2023-04-03T02:39:45;2.50;;;2.27;;
12760;SDS011;6444;49.742;6.114;2023-04-03T02:42:12;3.80;;;2.23;;
12760;SDS011;6444;49.742;6.114;2023-04-03T02:44:38;3.93;;;2.77;;
12760;SDS011;6444;49.742;6.114;2023-04-03T02:47:05;5.87;;;2.47;;
12760;SDS011;6444;49.742;6.114;2023-04-03T02:49:32;6.68;;;3.65;;
12760;SDS011;6444;49.742;6.114;2023-04-03T02:51:58;3.30;;;3.00;;
12760;SDS011;6444;49.742;6.114;2023-04-03T02:54:25;3.40;;;2.60;;
12760;SDS011;6444;49.742;6.114;2023-04-03T02:56:52;3.07;;;2.27;;
12760;SDS011;6444;49.742;6.114;2023-04-03T02:59:19;3.00;;;2.70;;
12760;SDS011;6444;49.742;6.114;2023-04-03T03:01:46;3.07;;;2.80;;
12760;SDS011;6444;49.742;6.114;2023-04-03T03:04:12;3.77;;;2.67;;
12760;SDS011;6444;49.742;6.114;2023-04-03T03:06:40;4.53;;;2.80;;
12760;SDS011;6444;49.742;6.114;2023-04-03T03:09:06;4.00;;;2.63;;
12760;SDS011;6444;49.742;6.114;2023-04-03T03:11:33;3.07;;;2.37;;
12760;SDS011;6444;49.742;6.114;2023-04-03T03:13:59;4.68;;;4.18;;
12760;SDS011;6444;49.742;6.114;2023-04-03T03:16:26;3.73;;;3.33;;
12760;SDS011;6444;49.742;6.114;2023-04-03T03:18:53;4.60;;;2.73;;
12760;SDS011;6444;49.742;6.114;2023-04-03T03:21:19;4.60;;;4.20;;
12760;SDS011;6444;49.742;6.114;2023-04-03T03:23:46;4.30;;;3.30;;
12760;SDS011;6444;49.742;6.114;2023-04-03T03:26:13;5.63;;;2.90;;
12760;SDS011;6444;49.742;6.114;2023-04-03T03:28:39;3.30;;;3.00;;
12760;SDS011;6444;49.742;6.114;2023-04-03T03:31:08;2.77;;;2.57;;
12760;SDS011;6444;49.742;6.114;2023-04-03T03:33:34;3.50;;;2.90;;
12760;SDS011;6444;49.742;6.114;2023-04-03T03:36:00;5.37;;;3.20;;
12760;SDS011;6444;49.742;6.114;2023-04-03T03:38:28;3.23;;;2.90;;
12760;SDS011;6444;49.742;6.114;2023-04-03T03:40:54;6.50;;;3.10;;
12760;SDS011;6444;49.742;6.114;2023-04-03T03:43:21;4.00;;;2.70;;
12760;SDS011;6444;49.742;6.114;2023-04-03T03:45:52;5.40;;;2.70;;
12760;SDS011;6444;49.742;6.114;2023-04-03T03:48:15;4.80;;;2.87;;
12760;SDS011;6444;49.742;6.114;2023-04-03T03:50:41;5.97;;;2.70;;
12760;SDS011;6444;49.742;6.114;2023-04-03T03:53:09;3.40;;;2.97;;
12760;SDS011;6444;49.742;6.114;2023-04-03T03:55:35;6.53;;;4.90;;
12760;SDS011;6444;49.742;6.114;2023-04-03T03:58:02;7.73;;;3.87;;
12760;SDS011;6444;49.742;6.114;2023-04-03T04:00:29;5.73;;;3.40;;
12760;SDS011;6444;49.742;6.114;2023-04-03T04:02:56;4.93;;;3.20;;
12760;SDS011;6444;49.742;6.114;2023-04-03T04:05:23;4.87;;;3.10;;
12760;SDS011;6444;49.742;6.114;2023-04-03T04:07:49;6.73;;;3.00;;
12760;SDS011;6444;49.742;6.114;2023-04-03T04:10:17;6.00;;;3.33;;
12760;SDS011;6444;49.742;6.114;2023-04-03T04:12:43;3.03;;;2.73;;
12760;SDS011;6444;49.742;6.114;2023-04-03T04:15:10;4.67;;;3.47;;
12760;SDS011;6444;49.742;6.114;2023-04-03T04:17:37;4.30;;;3.00;;
12760;SDS011;6444;49.742;6.114;2023-04-03T04:20:03;5.83;;;3.07;;
12760;SDS011;6444;49.742;6.114;2023-04-03T04:22:30;3.87;;;3.00;;
12760;SDS011;6444;49.742;6.114;2023-04-03T04:24:57;4.20;;;3.00;;
12760;SDS011;6444;49.742;6.114;2023-04-03T04:27:24;3.07;;;2.63;;
12760;SDS011;6444;49.742;6.114;2023-04-03T04:29:51;4.17;;;3.27;;
12760;SDS011;6444;49.742;6.114;2023-04-03T04:32:17;4.50;;;2.87;;
12760;SDS011;6444;49.742;6.114;2023-04-03T04:34:44;4.43;;;3.10;;
12760;SDS011;6444;49.742;6.114;2023-04-03T04:37:10;3.73;;;2.90;;
12760;SDS011;6444;49.742;6.114;2023-04-03T04:39:37;3.80;;;3.30;;
12760;SDS011;6444;49.742;6.114;2023-04-03T04:42:04;4.50;;;3.37;;
12760;SDS011;6444;49.742;6.114;2023-04-03T04:44:30;8.05;;;5.25;;
12760;SDS011;6444;49.742;6.114;2023-04-03T04:46:57;6.53;;;5.70;;
12760;SDS011;6444;49.742;6.114;2023-04-03T04:49:24;6.33;;;4.47;;
12760;SDS011;6444;49.742;6.114;2023-04-03T04:51:50;4.90;;;4.30;;
12760;SDS011;6444;49.742;6.114;2023-04-03T04:54:18;5.27;;;3.03;;
12760;SDS011;6444;49.742;6.114;2023-04-03T04:56:44;6.03;;;3.60;;
12760;SDS011;6444;49.742;6.114;2023-04-03T04:59:11;3.67;;;3.33;;
12760;SDS011;6444;49.742;6.114;2023-04-03T05:01:38;5.33;;;3.30;;
12760;SDS011;6444;49.742;6.114;2023-04-03T05:04:04;5.17;;;3.57;;
12760;SDS011;6444;49.742;6.114;2023-04-03T05:06:31;8.73;;;4.23;;
12760;SDS011;6444;49.742;6.114;2023-04-03T05:08:58;4.27;;;3.17;;
12760;SDS011;6444;49.742;6.114;2023-04-03T05:11:25;4.53;;;3.40;;
12760;SDS011;6444;49.742;6.114;2023-04-03T05:13:51;4.37;;;3.40;;
12760;SDS011;6444;49.742;6.114;2023-04-03T05:16:19;5.93;;;3.47;;
12760;SDS011;6444;49.742;6.114;2023-04-03T05:18:45;4.80;;;3.40;;
12760;SDS011;6444;49.742;6.114;2023-04-03T05:21:12;4.87;;;3.23;;
12760;SDS011;6444;49.742;6.114;2023-04-03T05:23:39;5.60;;;3.93;;
12760;SDS011;6444;49.742;6.114;2023-04-03T05:26:06;5.37;;;3.67;;
12760;SDS011;6444;49.742;6.114;2023-04-03T05:28:33;5.97;;;3.30;;
12760;SDS011;6444;49.742;6.114;2023-04-03T05:31:00;4.77;;;3.80;;
12760;SDS011;6444;49.742;6.114;2023-04-03T05:33:26;4.10;;;3.13;;
12760;SDS011;6444;49.742;6.114;2023-04-03T05:35:53;6.97;;;4.13;;
12760;SDS011;6444;49.742;6.114;2023-04-03T05:38:19;3.93;;;3.50;;
12760;SDS011;6444;49.742;6.114;2023-04-03T05:40:46;3.97;;;3.53;;
12760;SDS011;6444;49.742;6.114;2023-04-03T05:43:13;6.25;;;5.10;;
12760;SDS011;6444;49.742;6.114;2023-04-03T05:45:39;9.13;;;4.10;;
12760;SDS011;6444;49.742;6.114;2023-04-03T05:48:06;4.43;;;3.53;;
12760;SDS011;6444;49.742;6.114;2023-04-03T05:50:33;6.80;;;5.10;;
12760;SDS011;6444;49.742;6.114;2023-04-03T05:52:59;6.27;;;3.60;;
12760;SDS011;6444;49.742;6.114;2023-04-03T05:55:26;3.60;;;3.20;;
12760;SDS011;6444;49.742;6.114;2023-04-03T05:57:52;4.63;;;3.77;;
12760;SDS011;6444;49.742;6.114;2023-04-03T06:00:20;7.10;;;3.30;;
12760;SDS011;6444;49.742;6.114;2023-04-03T06:02:47;5.77;;;3.33;;
12760;SDS011;6444;49.742;6.114;2023-04-03T06:05:14;4.90;;;3.70;;
12760;SDS011;6444;49.742;6.114;2023-04-03T06:07:41;4.60;;;3.67;;
12760;SDS011;6444;49.742;6.114;2023-04-03T06:10:07;6.47;;;4.07;;
12760;SDS011;6444;49.742;6.114;2023-04-03T06:12:34;4.90;;;3.97;;
12760;SDS011;6444;49.742;6.114;2023-04-03T06:15:01;5.10;;;3.93;;
12760;SDS011;6444;49.742;6.114;2023-04-03T06:17:27;3.55;;;2.20;;
12760;SDS011;6444;49.742;6.114;2023-04-03T06:19:54;2.60;;;2.30;;
12760;SDS011;6444;49.742;6.114;2023-04-03T06:22:20;4.30;;;2.20;;
12760;SDS011;6444;49.742;6.114;2023-04-03T06:24:47;2.60;;;2.08;;
12760;SDS011;6444;49.742;6.114;2023-04-03T06:27:14;3.62;;;2.97;;
12760;SDS011;6444;49.742;6.114;2023-04-03T06:29:41;3.92;;;2.33;;
12760;SDS011;6444;49.742;6.114;2023-04-03T06:32:08;5.35;;;3.12;;
12760;SDS011;6444;49.742;6.114;2023-04-03T06:34:34;4.40;;;3.08;;
12760;SDS011;6444;49.742;6.114;2023-04-03T06:37:01;3.47;;;3.08;;
12760;SDS011;6444;49.742;6.114;2023-04-03T06:39:37;3.40;;;2.50;;
12760;SDS011;6444;49.742;6.114;2023-04-03T06:42:04;3.55;;;2.47;;
12760;SDS011;6444;49.742;6.114;2023-04-03T06:44:31;3.92;;;2.47;;
12760;SDS011;6444;49.742;6.114;2023-04-03T06:46:57;2.20;;;1.98;;
12760;SDS011;6444;49.742;6.114;2023-04-03T06:49:24;7.93;;;2.05;;
12760;SDS011;6444;49.742;6.114;2023-04-03T06:51:51;1.87;;;1.60;;
12760;SDS011;6444;49.742;6.114;2023-04-03T06:54:18;2.65;;;1.67;;
12760;SDS011;6444;49.742;6.114;2023-04-03T06:56:45;1.65;;;1.52;;
12760;SDS011;6444;49.742;6.114;2023-04-03T06:59:12;3.25;;;1.58;;
12760;SDS011;6444;49.742;6.114;2023-04-03T07:01:38;2.75;;;1.77;;
12760;SDS011;6444;49.742;6.114;2023-04-03T07:04:04;2.42;;;1.90;;
12760;SDS011;6444;49.742;6.114;2023-04-03T07:06:32;2.87;;;1.80;;
12760;SDS011;6444;49.742;6.114;2023-04-03T07:08:59;4.57;;;1.85;;
12760;SDS011;6444;49.742;6.114;2023-04-03T07:11:25;3.17;;;2.05;;
12760;SDS011;6444;49.742;6.114;2023-04-03T07:13:52;3.87;;;1.40;;
12760;SDS011;6444;49.742;6.114;2023-04-03T07:16:19;3.60;;;1.50;;
12760;SDS011;6444;49.742;6.114;2023-04-03T07:18:45;2.95;;;1.35;;
12760;SDS011;6444;49.742;6.114;2023-04-03T07:21:12;2.58;;;1.30;;
12760;SDS011;6444;49.742;6.114;2023-04-03T07:23:38;1.58;;;1.30;;
12760;SDS011;6444;49.742;6.114;2023-04-03T07:26:05;2.35;;;1.20;;
12760;SDS011;6444;49.742;6.114;2023-04-03T07:28:33;2.08;;;1.30;;
12760;SDS011;6444;49.742;6.114;2023-04-03T07:31:01;1.87;;;1.10;;
12760;SDS011;6444;49.742;6.114;2023-04-03T07:33:26;2.65;;;1.77;;
12760;SDS011;6444;49.742;6.114;2023-04-03T07:35:53;3.05;;;1.40;;
12760;SDS011;6444;49.742;6.114;2023-04-03T07:38:20;2.03;;;1.20;;
12760;SDS011;6444;49.742;6.114;2023-04-03T07:40:49;4.18;;;1.48;;
12760;SDS011;6444;49.742;6.114;2023-04-03T07:43:16;4.50;;;1.42;;
12760;SDS011;6444;49.742;6.114;2023-04-03T07:45:42;2.78;;;1.70;;
12760;SDS011;6444;49.742;6.114;2023-04-03T07:48:12;1.92;;;1.27;;
12760;SDS011;6444;49.742;6.114;2023-04-03T07:50:42;3.30;;;1.70;;
12760;SDS011;6444;49.742;6.114;2023-04-03T07:53:08;3.47;;;1.90;;
12760;SDS011;6444;49.742;6.114;2023-04-03T07:55:35;3.62;;;1.80;;
12760;SDS011;6444;49.742;6.114;2023-04-03T07:58:02;4.07;;;1.67;;
12760;SDS011;6444;49.742;6.114;2023-04-03T08:00:28;3.07;;;1.60;;
12760;SDS011;6444;49.742;6.114;2023-04-03T08:02:55;2.95;;;1.40;;
12760;SDS011;6444;49.742;6.114;2023-04-03T08:05:21;1.70;;;1.35;;
12760;SDS011;6444;49.742;6.114;2023-04-03T08:07:48;2.55;;;1.45;;
12760;SDS011;6444;49.742;6.114;2023-04-03T08:10:15;3.08;;;1.40;;
12760;SDS011;6444;49.742;6.114;2023-04-03T08:12:41;2.05;;;1.50;;
12760;SDS011;6444;49.742;6.114;2023-04-03T08:15:08;2.53;;;1.52;;
12760;SDS011;6444;49.742;6.114;2023-04-03T08:17:35;1.90;;;1.40;;
12760;SDS011;6444;49.742;6.114;2023-04-03T08:20:06;2.97;;;1.52;;
12760;SDS011;6444;49.742;6.114;2023-04-03T08:22:33;3.15;;;1.60;;
12760;SDS011;6444;49.742;6.114;2023-04-03T08:25:00;2.53;;;1.60;;
12760;SDS011;6444;49.742;6.114;2023-04-03T08:27:27;2.65;;;1.45;;
12760;SDS011;6444;49.742;6.114;2023-04-03T08:29:54;3.10;;;1.50;;
12760;SDS011;6444;49.742;6.114;2023-04-03T08:32:20;4.68;;;1.40;;
12760;SDS011;6444;49.742;6.114;2023-04-03T08:34:47;2.47;;;1.40;;
12760;SDS011;6444;49.742;6.114;2023-04-03T08:37:14;3.65;;;1.67;;
12760;SDS011;6444;49.742;6.114;2023-04-03T08:39:41;4.53;;;1.83;;
12760;SDS011;6444;49.742;6.114;2023-04-03T08:42:14;3.08;;;1.60;;
12760;SDS011;6444;49.742;6.114;2023-04-03T08:49:36;2.70;;;1.48;;
12760;SDS011;6444;49.742;6.114;2023-04-03T08:52:05;5.05;;;1.80;;
12760;SDS011;6444;49.742;6.114;2023-04-03T08:54:35;3.35;;;1.67;;
12760;SDS011;6444;49.742;6.114;2023-04-03T08:56:58;2.40;;;1.70;;
12760;SDS011;6444;49.742;6.114;2023-04-03T08:59:29;3.05;;;1.58;;
12760;SDS011;6444;49.742;6.114;2023-04-03T09:01:54;2.90;;;1.65;;
12760;SDS011;6444;49.742;6.114;2023-04-03T09:04:21;2.70;;;1.70;;
12760;SDS011;6444;49.742;6.114;2023-04-03T09:06:52;3.08;;;1.58;;
12760;SDS011;6444;49.742;6.114;2023-04-03T09:12:10;3.30;;;1.50;;
12760;SDS011;6444;49.742;6.114;2023-04-03T09:17:11;3.15;;;1.70;;
12760;SDS011;6444;49.742;6.114;2023-04-03T09:19:37;3.60;;;2.17;;
12760;SDS011;6444;49.742;6.114;2023-04-03T09:24:38;3.05;;;1.60;;
12760;SDS011;6444;49.742;6.114;2023-04-03T09:27:06;2.60;;;1.95;;
12760;SDS011;6444;49.742;6.114;2023-04-03T09:29:31;3.40;;;1.93;;
12760;SDS011;6444;49.742;6.114;2023-04-03T09:32:02;2.95;;;1.80;;
12760;SDS011;6444;49.742;6.114;2023-04-03T09:34:32;4.72;;;2.37;;
12760;SDS011;6444;49.742;6.114;2023-04-03T09:36:59;2.92;;;1.83;;
12760;SDS011;6444;49.742;6.114;2023-04-03T09:39:25;2.65;;;1.83;;
12760;SDS011;6444;49.742;6.114;2023-04-03T09:42:01;2.67;;;1.90;;
12760;SDS011;6444;49.742;6.114;2023-04-03T09:46:59;3.40;;;1.50;;
12760;SDS011;6444;49.742;6.114;2023-04-03T09:49:26;6.80;;;4.93;;
12760;SDS011;6444;49.742;6.114;2023-04-03T09:51:53;2.80;;;1.70;;
12760;SDS011;6444;49.742;6.114;2023-04-03T09:54:31;3.22;;;1.60;;
12760;SDS011;6444;49.742;6.114;2023-04-03T09:57:02;4.30;;;2.67;;
12760;SDS011;6444;49.742;6.114;2023-04-03T09:59:28;1.87;;;1.58;;
12760;SDS011;6444;49.742;6.114;2023-04-03T10:01:57;2.17;;;1.75;;
12760;SDS011;6444;49.742;6.114;2023-04-03T10:04:22;2.50;;;1.80;;
12760;SDS011;6444;49.742;6.114;2023-04-03T10:06:53;3.80;;;1.77;;
12760;SDS011;6444;49.742;6.114;2023-04-03T10:09:20;2.12;;;1.65;;
12760;SDS011;6444;49.742;6.114;2023-04-03T10:12:00;2.67;;;1.45;;
12760;SDS011;6444;49.742;6.114;2023-04-03T10:14:35;1.48;;;1.25;;
12760;SDS011;6444;49.742;6.114;2023-04-03T10:22:18;3.70;;;1.95;;
12760;SDS011;6444;49.742;6.114;2023-04-03T10:24:53;2.00;;;1.80;;
12760;SDS011;6444;49.742;6.114;2023-04-03T10:36:02;2.53;;;1.73;;
12760;SDS011;6444;49.742;6.114;2023-04-03T10:38:31;4.03;;;1.90;;
12760;SDS011;6444;49.742;6.114;2023-04-03T10:41:16;3.05;;;1.50;;
12760;SDS011;6444;49.742;6.114;2023-04-03T10:43:50;2.42;;;1.85;;
12760;SDS011;6444;49.742;6.114;2023-04-03T10:48:53;2.15;;;1.83;;
12760;SDS011;6444;49.742;6.114;2023-04-03T10:51:19;2.05;;;1.52;;
12760;SDS011;6444;49.742;6.114;2023-04-03T10:53:55;2.28;;;1.67;;
12760;SDS011;6444;49.742;6.114;2023-04-03T10:56:31;2.90;;;1.62;;
12760;SDS011;6444;49.742;6.114;2023-04-03T11:01:42;3.03;;;1.73;;
12760;SDS011;6444;49.742;6.114;2023-04-03T11:04:08;3.37;;;1.75;;
12760;SDS011;6444;49.742;6.114;2023-04-03T11:06:43;2.45;;;1.67;;
12760;SDS011;6444;49.742;6.114;2023-04-03T11:09:17;2.65;;;1.70;;
12760;SDS011;6444;49.742;6.114;2023-04-03T11:11:43;2.90;;;1.87;;
12760;SDS011;6444;49.742;6.114;2023-04-03T11:14:11;3.28;;;1.87;;
12760;SDS011;6444;49.742;6.114;2023-04-03T11:16:46;2.67;;;1.83;;
12760;SDS011;6444;49.742;6.114;2023-04-03T11:19:14;2.95;;;1.60;;
12760;SDS011;6444;49.742;6.114;2023-04-03T11:21:51;3.53;;;1.67;;
12760;SDS011;6444;49.742;6.114;2023-04-03T11:24:15;1.70;;;1.33;;
12760;SDS011;6444;49.742;6.114;2023-04-03T11:26:38;4.85;;;2.00;;
12760;SDS011;6444;49.742;6.114;2023-04-03T11:29:08;2.55;;;1.52;;
12760;SDS011;6444;49.742;6.114;2023-04-03T11:34:21;3.15;;;1.83;;
12760;SDS011;6444;49.742;6.114;2023-04-03T11:36:50;3.12;;;1.83;;
12760;SDS011;6444;49.742;6.114;2023-04-03T11:45:17;2.97;;;1.90;;
12760;SDS011;6444;49.742;6.114;2023-04-03T11:47:50;2.10;;;1.73;;
12760;SDS011;6444;49.742;6.114;2023-04-03T11:52:57;2.60;;;1.90;;
12760;SDS011;6444;49.742;6.114;2023-04-03T12:13:42;3.40;;;2.12;;
12760;SDS011;6444;49.742;6.114;2023-04-03T12:21:16;2.87;;;1.90;;
12760;SDS011;6444;49.742;6.114;2023-04-03T12:26:31;3.15;;;1.90;;
12760;SDS011;6444;49.742;6.114;2023-04-03T12:29:20;1.75;;;1.65;;
12760;SDS011;6444;49.742;6.114;2023-04-03T12:32:08;3.42;;;1.50;;
12760;SDS011;6444;49.742;6.114;2023-04-03T12:37:38;2.83;;;2.08;;
12760;SDS011;6444;49.742;6.114;2023-04-03T12:40:06;4.15;;;1.85;;
12760;SDS011;6444;49.742;6.114;2023-04-03T12:45:28;1.73;;;1.62;;
12760;SDS011;6444;49.742;6.114;2023-04-03T12:47:55;4.00;;;1.90;;
12760;SDS011;6444;49.742;6.114;2023-04-03T12:50:22;2.78;;;1.83;;
12760;SDS011;6444;49.742;6.114;2023-04-03T12:55:26;2.75;;;1.52;;
12760;SDS011;6444;49.742;6.114;2023-04-03T12:57:52;2.45;;;1.30;;
12760;SDS011;6444;49.742;6.114;2023-04-03T13:00:20;3.75;;;1.83;;
12760;SDS011;6444;49.742;6.114;2023-04-03T13:02:48;3.72;;;1.80;;
12760;SDS011;6444;49.742;6.114;2023-04-03T13:05:16;2.30;;;1.40;;
12760;SDS011;6444;49.742;6.114;2023-04-03T13:07:42;3.08;;;1.87;;
12760;SDS011;6444;49.742;6.114;2023-04-03T13:12:44;3.20;;;1.70;;
12760;SDS011;6444;49.742;6.114;2023-04-03T13:15:10;2.35;;;1.30;;
12760;SDS011;6444;49.742;6.114;2023-04-03T13:17:28;1.83;;;1.20;;
12760;SDS011;6444;49.742;6.114;2023-04-03T13:19:55;3.47;;;1.60;;
12760;SDS011;6444;49.742;6.114;2023-04-03T13:22:34;2.70;;;1.73;;
12760;SDS011;6444;49.742;6.114;2023-04-03T13:25:02;3.25;;;1.50;;
12760;SDS011;6444;49.742;6.114;2023-04-03T13:27:28;2.78;;;1.25;;
12760;SDS011;6444;49.742;6.114;2023-04-03T13:29:54;2.35;;;1.55;;
12760;SDS011;6444;49.742;6.114;2023-04-03T13:32:21;2.35;;;1.65;;
12760;SDS011;6444;49.742;6.114;2023-04-03T13:34:50;2.03;;;1.37;;
12760;SDS011;6444;49.742;6.114;2023-04-03T13:37:20;1.70;;;1.30;;
12760;SDS011;6444;49.742;6.114;2023-04-03T13:39:55;2.42;;;1.60;;
12760;SDS011;6444;49.742;6.114;2023-04-03T13:42:20;2.58;;;1.30;;
12760;SDS011;6444;49.742;6.114;2023-04-03T13:44:49;3.08;;;1.60;;
12760;SDS011;6444;49.742;6.114;2023-04-03T13:49:43;3.03;;;1.65;;
12760;SDS011;6444;49.742;6.114;2023-04-03T13:54:57;2.60;;;1.40;;
12760;SDS011;6444;49.742;6.114;2023-04-03T13:57:22;2.55;;;1.40;;
12760;SDS011;6444;49.742;6.114;2023-04-03T13:59:48;2.53;;;1.50;;
12760;SDS011;6444;49.742;6.114;2023-04-03T14:02:16;2.75;;;1.23;;
12760;SDS011;6444;49.742;6.114;2023-04-03T14:07:11;3.22;;;1.50;;
12760;SDS011;6444;49.742;6.114;2023-04-03T14:09:38;3.35;;;1.50;;
12760;SDS011;6444;49.742;6.114;2023-04-03T14:12:05;3.42;;;1.60;;
12760;SDS011;6444;49.742;6.114;2023-04-03T14:14:32;2.15;;;1.23;;
12760;SDS011;6444;49.742;6.114;2023-04-03T14:16:59;3.17;;;1.67;;
12760;SDS011;6444;49.742;6.114;2023-04-03T14:19:32;2.87;;;1.23;;
12760;SDS011;6444;49.742;6.114;2023-04-03T14:21:54;2.08;;;1.35;;
12760;SDS011;6444;49.742;6.114;2023-04-03T14:24:20;2.33;;;1.58;;
12760;SDS011;6444;49.742;6.114;2023-04-03T14:26:47;3.20;;;1.40;;
12760;SDS011;6444;49.742;6.114;2023-04-03T14:29:13;2.85;;;1.50;;
12760;SDS011;6444;49.742;6.114;2023-04-03T14:31:41;2.80;;;1.40;;
12760;SDS011;6444;49.742;6.114;2023-04-03T14:34:07;1.83;;;1.17;;
12760;SDS011;6444;49.742;6.114;2023-04-03T14:36:34;2.47;;;1.20;;
12760;SDS011;6444;49.742;6.114;2023-04-03T14:39:01;2.25;;;1.40;;
12760;SDS011;6444;49.742;6.114;2023-04-03T14:41:27;2.22;;;1.40;;
12760;SDS011;6444;49.742;6.114;2023-04-03T14:43:54;2.47;;;1.30;;
12760;SDS011;6444;49.742;6.114;2023-04-03T14:46:38;1.80;;;1.40;;
12760;SDS011;6444;49.742;6.114;2023-04-03T14:49:03;4.30;;;1.50;;
12760;SDS011;6444;49.742;6.114;2023-04-03T14:51:29;1.70;;;1.25;;
12760;SDS011;6444;49.742;6.114;2023-04-03T14:53:56;1.33;;;1.03;;
12760;SDS011;6444;49.742;6.114;2023-04-03T14:56:23;1.70;;;1.30;;
12760;SDS011;6444;49.742;6.114;2023-04-03T14:58:51;3.83;;;1.55;;
12760;SDS011;6444;49.742;6.114;2023-04-03T15:01:17;3.35;;;1.73;;
12760;SDS011;6444;49.742;6.114;2023-04-03T15:03:44;2.17;;;1.30;;
12760;SDS011;6444;49.742;6.114;2023-04-03T15:06:11;2.78;;;1.30;;
12760;SDS011;6444;49.742;6.114;2023-04-03T15:08:37;3.37;;;1.30;;
12760;SDS011;6444;49.742;6.114;2023-04-03T15:11:03;2.12;;;1.30;;
12760;SDS011;6444;49.742;6.114;2023-04-03T15:13:30;3.53;;;1.48;;
12760;SDS011;6444;49.742;6.114;2023-04-03T15:15:56;2.72;;;1.50;;
12760;SDS011;6444;49.742;6.114;2023-04-03T15:18:24;1.73;;;1.17;;
12760;SDS011;6444;49.742;6.114;2023-04-03T15:20:53;2.40;;;1.67;;
12760;SDS011;6444;49.742;6.114;2023-04-03T15:23:19;3.95;;;1.10;;
12760;SDS011;6444;49.742;6.114;2023-04-03T15:25:46;3.45;;;1.77;;
12760;SDS011;6444;49.742;6.114;2023-04-03T15:28:18;3.58;;;1.60;;
12760;SDS011;6444;49.742;6.114;2023-04-03T15:30:42;3.08;;;1.30;;
12760;SDS011;6444;49.742;6.114;2023-04-03T15:33:09;2.25;;;1.52;;
12760;SDS011;6444;49.742;6.114;2023-04-03T15:35:36;2.05;;;1.12;;
12760;SDS011;6444;49.742;6.114;2023-04-03T15:38:02;2.35;;;1.50;;
12760;SDS011;6444;49.742;6.114;2023-04-03T15:40:29;2.55;;;1.40;;
12760;SDS011;6444;49.742;6.114;2023-04-03T15:42:56;1.52;;;1.30;;
12760;SDS011;6444;49.742;6.114;2023-04-03T15:45:23;2.85;;;1.40;;
12760;SDS011;6444;49.742;6.114;2023-04-03T15:47:50;2.00;;;1.27;;
12760;SDS011;6444;49.742;6.114;2023-04-03T15:50:18;4.00;;;1.70;;
12760;SDS011;6444;49.742;6.114;2023-04-03T15:52:46;3.15;;;1.30;;
12760;SDS011;6444;49.742;6.114;2023-04-03T15:55:13;3.20;;;1.37;;
12760;SDS011;6444;49.742;6.114;2023-04-03T15:57:39;3.83;;;1.42;;
12760;SDS011;6444;49.742;6.114;2023-04-03T16:00:07;4.45;;;1.20;;
12760;SDS011;6444;49.742;6.114;2023-04-03T16:02:33;3.83;;;1.73;;
12760;SDS011;6444;49.742;6.114;2023-04-03T16:05:00;3.40;;;1.60;;
12760;SDS011;6444;49.742;6.114;2023-04-03T16:07:27;3.00;;;1.50;;
12760;SDS011;6444;49.742;6.114;2023-04-03T16:09:53;2.53;;;1.30;;
12760;SDS011;6444;49.742;6.114;2023-04-03T16:12:20;3.37;;;1.60;;
12760;SDS011;6444;49.742;6.114;2023-04-03T16:14:47;1.92;;;1.20;;
12760;SDS011;6444;49.742;6.114;2023-04-03T16:17:13;3.20;;;1.48;;
12760;SDS011;6444;49.742;6.114;2023-04-03T16:19:40;2.53;;;1.58;;
12760;SDS011;6444;49.742;6.114;2023-04-03T16:22:06;2.65;;;1.52;;
12760;SDS011;6444;49.742;6.114;2023-04-03T16:24:33;2.40;;;1.23;;
12760;SDS011;6444;49.742;6.114;2023-04-03T16:27:00;2.10;;;1.60;;
12760;SDS011;6444;49.742;6.114;2023-04-03T16:29:27;1.90;;;1.23;;
12760;SDS011;6444;49.742;6.114;2023-04-03T16:31:54;1.90;;;1.10;;
12760;SDS011;6444;49.742;6.114;2023-04-03T16:34:20;2.83;;;1.80;;